• Join FlightAware (Why Join?)
  • Login
  • US Flag 
11:57AM EST


 

Airport Tracker/Info


-or-


 

Live Flight TrackerFlight Track Log ✈ ASQ4252 ✈ 08-Jun-2013 ✈ KSLC - KDEN

Flight Track Log - Related Links

Times and Time Zones

All times are in EDT time to prevent confusion due to time zone crossing. See the ASQ4252 flight status page for this flight to view local times or setup timezone preferences in your user account.

Time Position Orientation Groundspeed Altitude Reporting Facility
EDT Latitude Longitude Course Direction KTS MPH feet Rate Location/Type
09:41PM 40.8178 -111.9811 146° Southeast 199 229 5,800  Level Salt Lake Center
09:42PM 40.8703 -111.9861 356° North 232 267 7,400 2,400 Climbing Salt Lake Center
09:43PM 40.9244 -111.9931 354° North 255 293 9,800 3,240 Climbing Salt Lake Center
09:43PM 40.9411 -111.9958 353° North 256 295 10,700 2,760 Climbing Salt Lake Center
09:44PM 41.1333 -111.8423 90° East  Level FlightAware Approximate
09:44PM 40.9794 -111.9417 47° Northeast 285 328 12,700  Level Salt Lake Center
09:44PM 40.9769 -111.9156 97° East 301 346 13,400 1,920 Climbing Salt Lake Center
09:45PM 41.0735 -111.7411 146° Southeast  Level FlightAware Approximate
09:45PM 40.9625 -111.8339 103° East 312 359 14,700  Level Salt Lake Center
09:46PM 40.9828 -111.6594 146° Southeast  Level FlightAware Approximate
09:46PM 40.9408 -111.7097 103° East 356 410 15,900  Level Salt Lake Center
09:47PM 40.9206 -111.5694 101° East 392 451 17,100 1,080 Climbing Salt Lake Center
09:48PM 40.9111 -111.4194 95° East 413 475 18,100 1,140 Climbing Salt Lake Center
09:49PM 40.8897 -111.2347 99° East 427 491 19,500 1,320 Climbing Salt Lake Center
09:50PM 40.8700 -111.0747 99° East 441 507 20,800 1,320 Climbing Salt Lake Center
09:51PM 40.8511 -110.9161 99° East 440 506 22,300 1,560 Climbing Salt Lake Center
09:52PM 40.8319 -110.7581 99° East 438 504 24,000 1,680 Climbing Salt Lake Center
09:53PM 40.8117 -110.6017 100° East 432 497 25,800 1,740 Climbing Salt Lake Center
09:54PM 40.7947 -110.4519 98° East 427 491 27,600 1,800 Climbing Salt Lake Center
09:55PM 40.7728 -110.2836 100° East 419 482 29,500 1,500 Climbing Salt Lake Center
09:56PM 40.7544 -110.1394 99° East 424 488 30,700 720 Climbing Salt Lake Center
09:57PM 40.7347 -109.9594 98° East 441 507 31,000 120 Climbing Salt Lake Center
09:58PM 40.7244 -109.7925 95° East 466 536 31,000  Level Salt Lake Center
09:59PM 40.7114 -109.6228 96° East 480 552 31,000  Level Salt Lake Center
10:00PM 40.6975 -109.4222 95° East 488 562 31,000  Level Salt Lake Center
10:01PM 40.6850 -109.2517 95° East 488 562 31,000  Level Salt Lake Center
10:02PM 40.6717 -109.0792 96° East 487 560 31,000  Level Denver Center
10:03PM 40.6589 -108.9064 96° East 493 567 31,000  Level Denver Center
10:04PM 40.6442 -108.7075 96° East 489 563 31,000  Level Denver Center
10:05PM 40.6314 -108.5353 96° East 490 564 31,000  Level Denver Center
10:06PM 40.6186 -108.3631 96° East 491 565 31,000  Level Denver Center
10:07PM 40.6031 -108.1636 96° East 489 563 31,000  Level Denver Center
10:08PM 40.5889 -107.9919 96° East 492 566 31,000  Level Denver Center
10:09PM 40.5758 -107.8208 96° East 491 565 31,000  Level Denver Center
10:10PM 40.5594 -107.6208 96° East 492 566 31,000  Level Denver Center
10:11PM 40.5453 -107.4489 96° East 492 566 31,000 -300 Level Denver Center
10:12PM 40.5294 -107.2764 97° East 494 568 30,400 -960 Descending Denver Center
10:13PM 40.5133 -107.0858 96° East 497 572 29,100 -1,320 Descending Denver Center
10:14PM 40.4983 -106.9064 96° East 494 568 27,800 -1,080 Descending Denver Center
10:15PM 40.4819 -106.7311 97° East 486 559 27,000 -420 Descending Denver Center
10:16PM 40.4661 -106.5525 97° East 488 562 27,000  Level Denver Center
10:17PM 40.4481 -106.3658 97° East 495 570 27,000  Level Denver Center
10:18PM 40.4286 -106.1639 97° East 499 574 27,000  Level Denver Center
10:19PM 40.4139 -106.0106 97° East 500 575 27,000  Level Denver Center
10:20PM 40.3964 -105.8289 97° East 502 578 27,000 -1,440 Level Denver Center
10:21PM 40.3753 -105.6164 97° East 492 566 24,100 -2,700 Descending Denver Center
10:22PM 40.3497 -105.4481 101° East 488 562 21,600 -2,520 Descending Denver Center
10:23PM 40.2742 -105.3056 125° Southeast 478 550 19,000 -2,340 Descending Denver Center
10:24PM 40.1936 -105.1808 130° Southeast 445 512 16,900 -1,800 Descending Denver Center
10:25PM 40.1122 -105.0542 130° Southeast 421 484 15,400 -1,260 Descending Denver Center
10:26PM 40.0403 -104.9419 130° Southeast 404 465 14,400 -1,020 Descending Denver Center
10:27PM 39.9636 -104.8403 135° Southeast 391 450 13,400 -1,140 Descending Denver Center
10:28PM 39.8675 -104.8114 167° South 348 400 12,100 -1,260 Descending Denver Center
10:29PM 39.7781 -104.8089 179° South 285 328 10,900 -1,320 Descending Denver Center
10:30PM 39.7081 -104.7975 173° South 255 293 9,500 -1,440 Descending Denver Center
10:31PM 39.7053 -104.7161 93° East 233 268 8,000 -1,500 Descending Denver Center